Time;durP1;ratioP1;P1;durP2;ratioP2;P2;SDS_P1;SDS_P2;PMS_P1;PMS_P2;Temp;Humidity;BMP_temperature;BMP_pressure;BME280_temperature;BME280_humidity;BME280_pressure;Samples;Min_cycle;Max_cycle;Signal;HPM_P1;HPM_P2
2021/06/26 00:02:16;;;;;;;9.15;3.72;;;589.50;1920.00;;;;;;4994604;28;20033;-61
2021/06/26 00:04:44;;;;;;;12.65;3.75;;;589.40;1945.60;;;;;;4995085;28;20031;-71
2021/06/26 00:07:09;;;;;;;9.52;4.00;;;589.50;1920.00;;;;;;4994594;28;20030;-61
2021/06/26 00:09:35;;;;;;;15.30;4.15;;;589.40;1945.60;;;;;;4994281;28;20041;-71
2021/06/26 00:12:01;;;;;;;8.32;3.25;;;589.40;1945.60;;;;;;4994497;28;20026;-72
2021/06/26 00:14:27;;;;;;;9.25;3.90;;;589.40;1971.20;;;;;;4994815;28;20036;-71
2021/06/26 00:16:53;;;;;;;10.43;3.88;;;589.40;1971.20;;;;;;4994711;28;20022;-66
2021/06/26 00:19:19;;;;;;;14.07;4.50;;;589.40;1971.20;;;;;;4994740;28;20448;-72
2021/06/26 00:21:45;;;;;;;14.30;4.60;;;589.40;1945.60;;;;;;4994692;28;20515;-62
2021/06/26 00:24:10;;;;;;;16.02;4.20;;;589.30;1945.60;;;;;;4994565;28;20027;-72
2021/06/26 00:26:36;;;;;;;18.52;4.32;;;589.30;1971.20;;;;;;4994275;28;20460;-71
2021/06/26 00:29:03;;;;;;;9.95;3.35;;;589.30;1971.20;;;;;;4994505;28;20049;-61
2021/06/26 00:31:28;;;;;;;14.45;4.10;;;589.30;1971.20;;;;;;4994444;28;20042;-61
2021/06/26 00:33:54;;;;;;;12.27;3.47;;;589.30;1945.60;;;;;;4994548;28;20034;-72
2021/06/26 00:36:20;;;;;;;10.00;3.20;;;589.20;1971.20;;;;;;4994524;28;20026;-61
2021/06/26 00:38:45;;;;;;;10.75;4.47;;;589.20;1945.60;;;;;;4992863;28;20042;-61
2021/06/26 00:41:11;;;;;;;18.75;3.60;;;589.20;1971.20;;;;;;4994210;28;20356;-72
2021/06/26 00:43:37;;;;;;;10.30;2.80;;;589.20;1971.20;;;;;;4993829;28;20105;-61
2021/06/26 00:46:03;;;;;;;10.68;3.38;;;589.20;1945.60;;;;;;4994232;28;20026;-61
2021/06/26 00:48:28;;;;;;;11.50;3.65;;;589.20;1945.60;;;;;;4994302;28;20129;-71
2021/06/26 00:50:54;;;;;;;11.13;4.05;;;589.10;1945.60;;;;;;4994379;28;20037;-61
2021/06/26 00:53:20;;;;;;;11.25;3.95;;;589.10;1945.60;;;;;;4994938;28;20400;-71
2021/06/26 00:55:52;;;;;;;10.18;3.67;;;589.10;1945.60;;;;;;4994283;28;20023;-71
2021/06/26 00:58:24;;;;;;;10.02;3.47;;;589.20;1945.60;;;;;;4994329;28;20030;-71
2021/06/26 01:00:53;;;;;;;7.53;3.75;;;589.20;1945.60;;;;;;4994246;28;20026;-72
2021/06/26 01:03:19;;;;;;;10.77;3.28;;;589.20;1945.60;;;;;;4994244;28;20130;-61
2021/06/26 01:05:45;;;;;;;11.60;3.55;;;589.20;1945.60;;;;;;4994248;28;20108;-61
2021/06/26 01:08:12;;;;;;;7.32;3.25;;;589.20;1945.60;;;;;;4994176;28;20054;-63
2021/06/26 01:10:38;;;;;;;9.45;3.60;;;589.20;1920.00;;;;;;4994274;28;20041;-64
2021/06/26 01:13:05;;;;;;;14.68;3.85;;;589.20;1945.60;;;;;;4994150;28;20388;-64
2021/06/26 01:15:31;;;;;;;11.15;3.70;;;589.20;1945.60;;;;;;4994070;28;20034;-63
2021/06/26 01:17:56;;;;;;;14.43;3.95;;;589.20;1920.00;;;;;;4993942;28;20038;-64
2021/06/26 01:20:24;;;;;;;8.60;3.47;;;589.10;1945.60;;;;;;4994110;28;20026;-64
2021/06/26 01:22:59;;;;;;;10.63;3.78;;;589.00;1945.60;;;;;;4994168;28;20022;-64
2021/06/26 01:25:29;;;;;;;11.55;3.42;;;589.10;1920.00;;;;;;4994606;28;20030;-62
2021/06/26 01:27:58;;;;;;;10.10;3.22;;;589.00;1920.00;;;;;;4993897;28;20105;-62
2021/06/26 01:30:30;;;;;;;11.88;3.47;;;588.90;1945.60;;;;;;4993719;28;20053;-62
2021/06/26 01:32:57;;;;;;;9.60;3.72;;;588.90;1945.60;;;;;;4994062;28;20026;-61
2021/06/26 01:35:23;;;;;;;9.45;3.00;;;588.90;1945.60;;;;;;4993799;28;20022;-64
2021/06/26 01:37:49;;;;;;;10.98;3.67;;;588.90;1945.60;;;;;;4995955;28;20107;-64
2021/06/26 01:40:17;;;;;;;10.50;3.30;;;588.90;1945.60;;;;;;4997728;28;20027;-63
2021/06/26 01:42:43;;;;;;;12.95;3.60;;;588.90;1945.60;;;;;;4997085;28;20042;-64
2021/06/26 01:45:09;;;;;;;14.85;3.45;;;588.90;1945.60;;;;;;4997610;28;20030;-64
2021/06/26 01:47:35;;;;;;;19.40;3.60;;;588.90;1945.60;;;;;;4996974;28;20030;-62
2021/06/26 01:50:02;;;;;;;11.57;3.33;;;588.90;1920.00;;;;;;4997320;28;20049;-62
2021/06/26 01:52:28;;;;;;;6.45;3.10;;;588.90;1920.00;;;;;;4997165;28;20106;-62
2021/06/26 01:54:54;;;;;;;13.23;4.70;;;588.90;1920.00;;;;;;4997127;28;20113;-62
2021/06/26 01:57:19;;;;;;;18.25;7.05;;;588.90;1920.00;;;;;;4997041;28;20057;-64
2021/06/26 01:59:46;;;;;;;14.15;6.40;;;588.90;1920.00;;;;;;4996858;28;20026;-62
2021/06/26 02:02:11;;;;;;;12.77;4.38;;;588.90;1920.00;;;;;;4996881;28;20555;-64
2021/06/26 02:04:37;;;;;;;12.43;4.38;;;588.80;1920.00;;;;;;4996852;28;20109;-64
2021/06/26 02:07:03;;;;;;;9.90;4.80;;;588.90;1920.00;;;;;;4996892;28;20113;-61
2021/06/26 02:09:28;;;;;;;12.45;4.85;;;588.80;1920.00;;;;;;4997002;28;20483;-62
2021/06/26 02:11:54;;;;;;;11.70;4.93;;;588.80;1920.00;;;;;;4996710;28;20475;-64
2021/06/26 02:14:20;;;;;;;14.02;5.15;;;588.80;1920.00;;;;;;4996764;28;20038;-64
2021/06/26 02:16:46;;;;;;;10.50;4.32;;;564.10;1945.60;;;;;;4996906;28;20042;-62
2021/06/26 02:19:11;;;;;;;12.02;4.50;;;564.10;1920.00;;;;;;4996769;28;20019;-63
2021/06/26 02:21:37;;;;;;;10.77;5.25;;;564.00;1945.60;;;;;;4996794;28;20034;-62
2021/06/26 02:24:03;;;;;;;27.42;9.18;;;563.90;1945.60;;;;;;4996651;28;20097;-64
2021/06/26 02:26:29;;;;;;;33.20;14.80;;;563.90;1971.20;;;;;;4996713;28;20027;-61
2021/06/26 02:28:55;;;;;;;44.60;19.02;;;563.90;1971.20;;;;;;4996608;28;20035;-62
2021/06/26 02:31:21;;;;;;;39.97;18.67;;;563.90;1971.20;;;;;;4996499;28;20018;-61
2021/06/26 02:33:47;;;;;;;25.20;12.13;;;563.80;1971.20;;;;;;4996526;28;20454;-63
2021/06/26 02:36:12;;;;;;;27.63;9.57;;;563.80;1945.60;;;;;;4996520;28;20030;-62
2021/06/26 02:38:38;;;;;;;15.45;7.55;;;563.80;1971.20;;;;;;4996457;28;20476;-62
2021/06/26 02:41:04;;;;;;;14.73;7.22;;;563.80;1971.20;;;;;;4996440;28;20211;-64
2021/06/26 02:43:29;;;;;;;10.80;6.45;;;563.80;1971.20;;;;;;4996192;28;20066;-62
2021/06/26 02:45:55;;;;;;;11.68;5.82;;;563.80;1996.80;;;;;;4996284;28;20058;-64
2021/06/26 02:48:21;;;;;;;14.88;5.25;;;563.70;1996.80;;;;;;4996018;28;20046;-65
2021/06/26 02:50:46;;;;;;;10.90;5.07;;;563.80;1996.80;;;;;;4996419;28;20456;-62
2021/06/26 02:53:12;;;;;;;10.85;4.90;;;563.80;1996.80;;;;;;4996028;28;20080;-64
2021/06/26 02:55:38;;;;;;;15.02;5.05;;;563.80;2022.40;;;;;;4995958;28;20099;-61
2021/06/26 02:58:04;;;;;;;7.78;4.72;;;563.70;2022.40;;;;;;4995991;28;20038;-64
2021/06/26 03:00:29;;;;;;;13.90;4.60;;;563.70;2022.40;;;;;;4995869;28;20045;-61
2021/06/26 03:02:55;;;;;;;12.10;4.07;;;563.80;2022.40;;;;;;4995929;28;20034;-61
2021/06/26 03:05:21;;;;;;;15.63;4.28;;;563.80;1996.80;;;;;;4995941;28;20502;-62
2021/06/26 03:07:52;;;;;;;13.02;5.10;;;563.90;1971.20;;;;;;4995585;28;20042;-62
2021/06/26 03:10:18;;;;;;;12.98;5.07;;;564.00;1996.80;;;;;;4995746;28;20036;-64
2021/06/26 03:12:44;;;;;;;11.43;5.20;;;564.00;1971.20;;;;;;4995625;28;20030;-64
2021/06/26 03:15:10;;;;;;;12.10;4.40;;;564.00;1971.20;;;;;;4995673;28;20053;-62
2021/06/26 03:17:36;;;;;;;12.48;4.60;;;564.00;1945.60;;;;;;4995631;28;20034;-62
2021/06/26 03:20:03;;;;;;;11.63;4.45;;;564.00;1945.60;;;;;;4995468;28;20369;-62
2021/06/26 03:22:29;;;;;;;11.27;4.32;;;564.00;1971.20;;;;;;4995065;28;20030;-62
2021/06/26 03:24:54;;;;;;;10.02;4.43;;;564.00;1971.20;;;;;;4995415;28;20034;-61
2021/06/26 03:27:20;;;;;;;9.57;4.60;;;564.00;1945.60;;;;;;4995215;28;20034;-64
2021/06/26 03:29:46;;;;;;;13.35;5.43;;;564.00;1945.60;;;;;;4995469;28;20384;-61
2021/06/26 03:32:11;;;;;;;11.68;5.05;;;564.00;1945.60;;;;;;4995438;28;20491;-61
2021/06/26 03:34:37;;;;;;;14.82;5.07;;;564.00;1971.20;;;;;;4995514;28;20105;-63
2021/06/26 03:37:03;;;;;;;16.60;4.35;;;564.00;1971.20;;;;;;4995441;28;20023;-64
2021/06/26 03:39:29;;;;;;;14.07;4.93;;;564.00;1971.20;;;;;;4995144;28;20030;-63
2021/06/26 03:41:55;;;;;;;11.98;5.15;;;564.00;1971.20;;;;;;4994733;28;20054;-63
2021/06/26 03:44:20;;;;;;;14.70;5.43;;;563.90;1971.20;;;;;;4995173;28;20107;-61
2021/06/26 03:46:46;;;;;;;14.88;5.75;;;563.90;1971.20;;;;;;4995006;28;20424;-63
2021/06/26 03:49:12;;;;;;;17.73;5.40;;;564.00;1971.20;;;;;;4995043;28;20043;-62
2021/06/26 03:51:39;;;;;;;16.58;6.10;;;564.00;1971.20;;;;;;4994867;28;20345;-64
2021/06/26 03:54:05;;;;;;;14.70;5.05;;;563.90;1971.20;;;;;;4994890;28;20065;-61
2021/06/26 03:56:31;;;;;;;12.63;6.30;;;563.90;1996.80;;;;;;4995196;28;20361;-64
2021/06/26 03:58:56;;;;;;;16.45;5.13;;;563.80;1996.80;;;;;;4994992;28;20028;-62
2021/06/26 04:01:22;;;;;;;16.73;5.45;;;563.90;1996.80;;;;;;4994242;28;20030;-61
2021/06/26 04:03:48;;;;;;;13.43;5.30;;;563.90;1996.80;;;;;;4994868;28;20033;-64
2021/06/26 04:06:14;;;;;;;17.13;5.20;;;564.00;1996.80;;;;;;4994809;28;20030;-64
2021/06/26 04:08:40;;;;;;;12.68;5.43;;;564.00;1996.80;;;;;;4994565;28;20121;-61
2021/06/26 04:11:06;;;;;;;9.27;5.20;;;564.00;1996.80;;;;;;4995101;28;20106;-61
2021/06/26 04:13:32;;;;;;;11.18;5.22;;;564.00;1996.80;;;;;;4994730;28;20027;-64
2021/06/26 04:15:58;;;;;;;13.73;5.45;;;564.00;2022.40;;;;;;4994636;28;20022;-64
2021/06/26 04:18:23;;;;;;;9.88;5.28;;;564.00;2022.40;;;;;;4994637;28;20158;-65
2021/06/26 04:20:49;;;;;;;14.05;6.03;;;564.10;2022.40;;;;;;4994695;28;20340;-64
2021/06/26 04:23:15;;;;;;;10.93;5.70;;;564.10;2022.40;;;;;;4994430;28;20046;-62
2021/06/26 04:25:41;;;;;;;18.45;6.30;;;564.10;2022.40;;;;;;4993853;28;20022;-61
2021/06/26 04:28:08;;;;;;;12.63;6.13;;;564.10;2022.40;;;;;;4993248;28;20050;-63
2021/06/26 04:30:35;;;;;;;21.35;5.95;;;588.80;2022.40;;;;;;4994126;28;20490;-64
2021/06/26 04:33:01;;;;;;;16.75;5.60;;;588.80;2022.40;;;;;;4993410;28;20030;-61
2021/06/26 04:35:27;;;;;;;12.43;5.15;;;588.80;1996.80;;;;;;4994388;28;20412;-64
2021/06/26 04:37:53;;;;;;;9.80;5.18;;;588.80;2022.40;;;;;;4994340;28;20072;-64
2021/06/26 04:40:18;;;;;;;11.25;4.90;;;588.90;1996.80;;;;;;4994558;28;20030;-64
2021/06/26 04:42:45;;;;;;;11.70;5.32;;;589.00;1996.80;;;;;;4994127;28;20058;-64
2021/06/26 04:45:12;;;;;;;8.63;5.13;;;589.00;1996.80;;;;;;4994474;28;20031;-64
2021/06/26 04:47:42;;;;;;;7.50;4.80;;;589.10;1971.20;;;;;;4994190;28;20503;-64
2021/06/26 04:50:09;;;;;;;9.68;4.57;;;589.20;1971.20;;;;;;4994102;28;20074;-62
2021/06/26 04:52:36;;;;;;;10.60;4.65;;;589.30;1971.20;;;;;;4993934;28;20031;-62
2021/06/26 04:55:04;;;;;;;10.75;4.22;;;589.50;1971.20;;;;;;4994135;28;20088;-62
2021/06/26 04:57:29;;;;;;;9.85;4.60;;;589.60;1945.60;;;;;;4994261;28;20030;-62
2021/06/26 04:59:55;;;;;;;13.25;4.57;;;589.60;1920.00;;;;;;4994226;28;20022;-63
2021/06/26 05:02:21;;;;;;;8.43;4.55;;;614.40;1920.00;;;;;;4994250;28;20396;-62
2021/06/26 05:04:47;;;;;;;7.82;4.43;;;614.40;1920.00;;;;;;4994241;28;20026;-60
2021/06/26 05:07:13;;;;;;;11.63;5.03;;;614.50;1894.40;;;;;;4994107;28;20476;-63
2021/06/26 05:09:39;;;;;;;8.85;4.30;;;614.60;1894.40;;;;;;4994033;28;20542;-61
2021/06/26 05:12:05;;;;;;;6.78;4.50;;;614.60;1868.80;;;;;;4994808;28;20033;-60
2021/06/26 05:14:31;;;;;;;6.85;3.80;;;614.70;1868.80;;;;;;4997748;28;20062;-62
2021/06/26 05:16:57;;;;;;;8.70;4.45;;;614.80;1868.80;;;;;;4997876;28;20057;-61
2021/06/26 05:19:23;;;;;;;6.88;4.07;;;614.90;1843.20;;;;;;4997823;28;20384;-62
2021/06/26 05:21:48;;;;;;;8.15;3.88;;;615.00;1843.20;;;;;;4997682;28;20034;-63
2021/06/26 05:24:14;;;;;;;5.80;3.65;;;615.10;1843.20;;;;;;4997945;28;20030;-59
2021/06/26 05:26:40;;;;;;;6.88;3.90;;;615.10;1843.20;;;;;;4997508;28;20054;-62
2021/06/26 05:29:06;;;;;;;7.80;4.05;;;615.20;1817.60;;;;;;4997437;28;20034;-62
2021/06/26 05:31:32;;;;;;;5.47;4.10;;;615.30;1792.00;;;;;;4997645;28;20026;-63
2021/06/26 05:33:58;;;;;;;10.18;4.15;;;640.00;1792.00;;;;;;4997584;28;20376;-60
2021/06/26 05:36:23;;;;;;;9.90;3.53;;;640.00;1766.40;;;;;;4997557;28;20406;-61
2021/06/26 05:38:49;;;;;;;8.00;3.42;;;640.10;1766.40;;;;;;4997532;28;20154;-60
2021/06/26 05:41:15;;;;;;;7.50;3.80;;;640.10;1740.80;;;;;;4997282;28;20026;-60
2021/06/26 05:43:41;;;;;;;6.20;3.45;;;640.20;1740.80;;;;;;4979698;28;20122;-59
2021/06/26 05:46:07;;;;;;;10.38;4.20;;;640.30;1740.80;;;;;;4997355;28;20471;-60
2021/06/26 05:48:33;;;;;;;6.30;4.15;;;640.50;1740.80;;;;;;4997583;28;20114;-62
2021/06/26 05:50:59;;;;;;;9.00;3.88;;;640.60;1715.20;;;;;;4997314;28;20522;-62
2021/06/26 05:53:25;;;;;;;9.68;3.75;;;640.70;1715.20;;;;;;4997608;28;20038;-59
2021/06/26 05:55:58;;;;;;;8.07;3.05;;;640.80;1689.60;;;;;;4997221;28;20065;-59
2021/06/26 05:58:29;;;;;;;7.57;3.60;;;665.60;1664.00;;;;;;4997123;28;20018;-59
2021/06/26 06:00:55;;;;;;;7.65;3.42;;;665.70;1664.00;;;;;;4996519;28;20126;-62
2021/06/26 06:03:21;;;;;;;10.38;4.13;;;665.90;1664.00;;;;;;4997021;28;20062;-63
2021/06/26 06:05:47;;;;;;;4.78;3.30;;;666.10;1664.00;;;;;;4997084;28;20376;-59
2021/06/26 06:08:14;;;;;;;7.28;3.78;;;666.20;1638.40;;;;;;4997054;28;20032;-59
2021/06/26 06:10:40;;;;;;;9.27;3.38;;;666.30;1612.80;;;;;;4997077;28;20065;-62
2021/06/26 06:13:12;;;;;;;8.13;4.15;;;666.40;1612.80;;;;;;4996767;28;20026;-59
2021/06/26 06:15:38;;;;;;;12.45;3.97;;;691.20;1587.20;;;;;;4996814;28;20492;-62
2021/06/26 06:18:03;;;;;;;8.75;3.78;;;691.30;1587.20;;;;;;4996780;28;20027;-63
2021/06/26 06:20:29;;;;;;;7.90;3.85;;;691.50;1561.60;;;;;;4996955;28;20026;-62
2021/06/26 06:22:55;;;;;;;6.97;3.53;;;691.60;1561.60;;;;;;4996290;28;20057;-62
2021/06/26 06:25:20;;;;;;;4.07;3.20;;;691.80;1536.00;;;;;;4996686;28;20033;-59
2021/06/26 06:27:46;;;;;;;8.70;4.30;;;691.90;1536.00;;;;;;4996418;28;20031;-59
2021/06/26 06:30:12;;;;;;;8.20;3.60;;;692.00;1510.40;;;;;;4996583;28;20376;-63
2021/06/26 06:32:38;;;;;;;7.05;3.95;;;716.90;1510.40;;;;;;4996522;28;20046;-62
2021/06/26 06:35:05;;;;;;;5.70;3.50;;;717.00;1484.80;;;;;;4996678;28;20028;-59
2021/06/26 06:37:31;;;;;;;10.57;4.00;;;717.20;1484.80;;;;;;4996719;28;20057;-59
2021/06/26 06:39:57;;;;;;;9.20;3.50;;;717.30;1459.20;;;;;;4996571;28;20054;-62
2021/06/26 06:42:22;;;;;;;12.10;4.30;;;717.50;1433.60;;;;;;4996160;28;20046;-63
2021/06/26 06:44:48;;;;;;;8.02;3.70;;;717.60;1433.60;;;;;;4996200;28;20034;-62
2021/06/26 06:47:14;;;;;;;12.80;3.70;;;742.40;1433.60;;;;;;4996176;28;20026;-63
2021/06/26 06:49:39;;;;;;;7.13;3.25;;;742.60;1433.60;;;;;;4996138;28;20035;-60
2021/06/26 06:52:06;;;;;;;6.57;3.47;;;742.70;1408.00;;;;;;4996224;28;20026;-63
2021/06/26 06:54:31;;;;;;;13.85;4.45;;;742.90;1408.00;;;;;;4993533;28;20361;-62
2021/06/26 06:56:57;;;;;;;8.10;3.90;;;743.20;1382.40;;;;;;4976374;28;20492;-72
2021/06/26 06:59:23;;;;;;;10.60;3.53;;;743.20;1356.80;;;;;;4976259;28;20033;-72
2021/06/26 07:01:49;;;;;;;7.97;3.42;;;743.30;1356.80;;;;;;4976254;28;20136;-70
2021/06/26 07:04:14;;;;;;;8.10;3.20;;;768.00;1356.80;;;;;;4959134;28;20038;-72
2021/06/26 07:06:40;;;;;;;7.60;3.40;;;768.20;1331.20;;;;;;4980139;28;20117;-71
2021/06/26 07:09:06;;;;;;;10.30;3.55;;;768.40;1305.60;;;;;;4982683;28;20121;-71
2021/06/26 07:11:31;;;;;;;6.30;3.17;;;768.50;1305.60;;;;;;4990194;28;20167;-60
2021/06/26 07:13:57;;;;;;;11.63;2.92;;;768.60;1305.60;;;;;;4981919;28;20023;-61
2021/06/26 07:16:23;;;;;;;8.55;3.08;;;768.70;1280.00;;;;;;4983464;28;20026;-69
2021/06/26 07:18:49;;;;;;;7.63;3.28;;;768.90;1280.00;;;;;;4981803;28;20030;-64
2021/06/26 07:21:14;;;;;;;6.82;2.80;;;793.70;1305.60;;;;;;4984602;28;20028;-71
2021/06/26 07:23:40;;;;;;;8.43;2.92;;;793.80;1280.00;;;;;;4984409;28;20027;-72
2021/06/26 07:26:06;;;;;;;9.75;2.80;;;793.90;1254.40;;;;;;4984216;28;20109;-62
2021/06/26 07:28:32;;;;;;;6.47;2.63;;;794.00;1228.80;;;;;;4984563;28;20503;-60
2021/06/26 07:30:57;;;;;;;10.25;2.60;;;794.10;1228.80;;;;;;4987144;28;20026;-67
2021/06/26 07:33:24;;;;;;;8.15;2.88;;;794.30;1228.80;;;;;;4993801;28;20264;-60
2021/06/26 07:35:50;;;;;;;8.52;3.40;;;794.40;1203.20;;;;;;4992899;28;20022;-67
2021/06/26 07:38:16;;;;;;;6.20;2.72;;;819.30;1203.20;;;;;;4993700;28;20468;-65
2021/06/26 07:40:42;;;;;;;10.35;2.85;;;819.40;1177.60;;;;;;4993935;28;20022;-66
2021/06/26 07:43:08;;;;;;;4.85;2.50;;;819.70;1177.60;;;;;;4993558;28;20050;-68
2021/06/26 07:45:33;;;;;;;8.15;2.67;;;819.70;1177.60;;;;;;4993558;28;20088;-72
2021/06/26 07:47:59;;;;;;;7.70;2.90;;;820.00;1152.00;;;;;;4993690;28;20034;-70
2021/06/26 07:50:25;;;;;;;8.23;2.60;;;844.80;1152.00;;;;;;4993451;28;20522;-64
2021/06/26 07:52:50;;;;;;;7.88;2.60;;;844.90;1126.40;;;;;;4993514;28;20022;-62
2021/06/26 07:55:16;;;;;;;5.65;2.60;;;845.00;1126.40;;;;;;4993559;28;20101;-59
2021/06/26 07:57:42;;;;;;;6.93;2.33;;;845.10;1100.80;;;;;;4993448;28;20022;-71
2021/06/26 08:00:08;;;;;;;11.60;3.00;;;845.30;1100.80;;;;;;4992828;28;20382;-69
2021/06/26 08:02:35;;;;;;;18.98;2.75;;;845.50;1100.80;;;;;;4994586;28;20141;-71
2021/06/26 08:05:01;;;;;;;18.63;3.25;;;845.50;1075.20;;;;;;4994859;28;20073;-60
2021/06/26 08:07:26;;;;;;;13.65;3.13;;;845.50;1075.20;;;;;;4994316;28;20022;-67
2021/06/26 08:09:52;;;;;;;9.57;3.00;;;845.60;1075.20;;;;;;4994824;28;20049;-60
2021/06/26 08:12:18;;;;;;;7.18;2.72;;;870.40;1075.20;;;;;;4994367;28;20022;-60
2021/06/26 08:14:44;;;;;;;11.13;3.38;;;870.60;1075.20;;;;;;4994816;28;20038;-60
2021/06/26 08:17:13;;;;;;;12.80;3.90;;;870.60;1024.00;;;;;;4993088;28;20468;-72
2021/06/26 08:19:40;;;;;;;23.50;3.63;;;870.70;1024.00;;;;;;4993986;28;20038;-61
2021/06/26 08:22:06;;;;;;;16.85;2.78;;;870.80;998.40;;;;;;4994346;28;20031;-71
2021/06/26 08:24:33;;;;;;;10.80;3.38;;;871.00;998.40;;;;;;4994570;28;20440;-73
2021/06/26 08:26:59;;;;;;;59.53;7.43;;;871.10;1024.00;;;;;;4993825;28;20109;-73
2021/06/26 08:29:25;;;;;;;28.60;5.78;;;871.20;1024.00;;;;;;4993586;28;20065;-62
2021/06/26 08:31:50;;;;;;;23.08;5.10;;;871.20;1024.00;;;;;;4994432;28;20464;-66
2021/06/26 08:34:16;;;;;;;24.48;6.28;;;871.20;998.40;;;;;;4994623;28;20380;-61
2021/06/26 08:36:42;;;;;;;16.60;4.47;;;896.00;972.80;;;;;;4994315;28;20376;-73
2021/06/26 08:39:07;;;;;;;33.47;21.92;;;896.00;972.80;;;;;;4994512;28;20033;-72
2021/06/26 08:41:41;;;;;;;27.77;12.52;;;896.00;972.80;;;;;;4994536;28;20345;-62
2021/06/26 08:44:07;;;;;;;13.05;4.05;;;896.00;972.80;;;;;;4976918;28;20034;-62
2021/06/26 08:46:39;;;;;;;25.02;6.28;;;896.10;947.20;;;;;;4996248;28;20349;-72
2021/06/26 08:49:05;;;;;;;11.30;2.97;;;896.30;972.80;;;;;;4998391;28;20045;-62
2021/06/26 08:51:31;;;;;;;16.67;2.83;;;896.60;947.20;;;;;;4998697;28;20031;-61
2021/06/26 08:53:57;;;;;;;9.52;2.60;;;896.60;921.60;;;;;;4998227;28;20022;-72
2021/06/26 08:56:22;;;;;;;8.07;3.00;;;896.70;921.60;;;;;;4998293;28;20105;-71
2021/06/26 08:58:48;;;;;;;7.40;3.05;;;896.70;921.60;;;;;;4998187;28;20041;-70
2021/06/26 09:01:14;;;;;;;7.50;3.20;;;896.80;921.60;;;;;;4998081;28;20376;-68
2021/06/26 09:03:40;;;;;;;7.93;3.40;;;896.80;921.60;;;;;;4998276;28;20018;-63
2021/06/26 09:06:09;;;;;;;8.93;3.47;;;921.60;947.20;;;;;;4997862;28;20400;-63
2021/06/26 09:08:34;;;;;;;12.95;3.17;;;921.60;947.20;;;;;;4997966;28;20034;-76
2021/06/26 09:11:00;;;;;;;8.18;3.15;;;921.70;947.20;;;;;;4998203;28;20523;-64
2021/06/26 09:13:28;;;;;;;7.60;3.05;;;921.90;947.20;;;;;;4997916;28;20518;-75
2021/06/26 09:16:05;;;;;;;9.90;3.58;;;922.00;921.60;;;;;;4997770;28;20380;-62
2021/06/26 09:18:40;;;;;;;6.43;2.78;;;922.10;896.00;;;;;;4997812;28;20472;-74
2021/06/26 09:21:26;;;;;;;7.45;3.40;;;922.10;921.60;;;;;;4997740;28;20023;-61
2021/06/26 09:24:02;;;;;;;7.47;3.40;;;922.10;921.60;;;;;;4997706;28;20046;-71
2021/06/26 09:26:29;;;;;;;8.18;3.53;;;922.10;896.00;;;;;;4997296;28;20061;-63
2021/06/26 09:28:54;;;;;;;7.22;4.05;;;922.10;896.00;;;;;;4997322;28;20380;-75
2021/06/26 09:31:21;;;;;;;8.80;3.10;;;922.10;896.00;;;;;;4997467;28;20026;-65
2021/06/26 09:33:57;;;;;;;27.15;5.03;;;922.10;896.00;;;;;;4997403;28;20522;-62
2021/06/26 09:36:31;;;;;;;10.18;4.10;;;922.20;921.60;;;;;;4997547;28;20033;-62
2021/06/26 09:39:06;;;;;;;14.32;4.35;;;922.30;896.00;;;;;;4997281;28;20105;-65
2021/06/26 09:41:33;;;;;;;17.27;4.72;;;922.40;870.40;;;;;;4996417;28;20029;-66
2021/06/26 09:44:10;;;;;;;13.32;3.30;;;922.30;870.40;;;;;;4996915;28;20039;-62
2021/06/26 09:46:51;;;;;;;7.53;3.67;;;922.30;844.80;;;;;;4997108;28;20042;-74
2021/06/26 09:49:28;;;;;;;9.25;3.88;;;922.40;870.40;;;;;;4997493;28;20030;-62
2021/06/26 09:52:04;;;;;;;6.32;3.63;;;922.50;870.40;;;;;;4997362;28;20076;-62
2021/06/26 09:54:31;;;;;;;9.73;4.07;;;922.50;870.40;;;;;;4997296;28;20029;-64
2021/06/26 09:56:57;;;;;;;6.53;3.55;;;922.40;896.00;;;;;;4997353;28;20058;-62
2021/06/26 09:59:31;;;;;;;9.43;3.53;;;922.30;870.40;;;;;;4996282;28;20049;-62
2021/06/26 10:01:58;;;;;;;8.60;3.67;;;922.40;870.40;;;;;;4997683;28;20026;-62
2021/06/26 10:04:24;;;;;;;7.05;4.10;;;947.20;870.40;;;;;;4997197;28;20105;-63
2021/06/26 10:06:52;;;;;;;21.42;5.30;;;947.30;896.00;;;;;;4996981;28;20057;-61
2021/06/26 10:09:18;;;;;;;36.33;6.13;;;947.30;870.40;;;;;;4996751;28;20121;-70
2021/06/26 10:11:46;;;;;;;20.52;4.65;;;947.30;844.80;;;;;;4996898;28;20499;-71
2021/06/26 10:14:12;;;;;;;58.85;6.75;;;947.30;844.80;;;;;;4996630;28;20031;-63
2021/06/26 10:16:40;;;;;;;38.00;4.85;;;947.30;844.80;;;;;;4996751;28;20080;-63
2021/06/26 10:19:10;;;;;;;33.15;5.63;;;947.40;844.80;;;;;;4996621;28;20031;-61
2021/06/26 10:21:36;;;;;;;30.63;5.10;;;947.40;844.80;;;;;;4996745;28;20065;-73
2021/06/26 10:24:15;;;;;;;24.73;4.88;;;947.40;844.80;;;;;;4996814;28;20085;-60
2021/06/26 10:26:42;;;;;;;16.60;5.00;;;947.50;870.40;;;;;;4996625;28;20022;-60
2021/06/26 10:29:08;;;;;;;14.27;3.95;;;947.60;844.80;;;;;;4996405;28;20040;-71
2021/06/26 10:31:40;;;;;;;11.88;4.05;;;947.70;844.80;;;;;;4996480;28;20022;-60
2021/06/26 10:34:15;;;;;;;13.18;3.70;;;947.90;844.80;;;;;;4996899;28;20543;-60
2021/06/26 10:36:50;;;;;;;21.98;4.60;;;948.00;844.80;;;;;;4996319;28;20033;-71
2021/06/26 10:39:20;;;;;;;29.92;5.82;;;972.80;896.00;;;;;;4996295;28;20022;-71
2021/06/26 10:42:19;;;;;;;34.13;4.90;;;972.80;896.00;;;;;;4995657;28;20038;-61
2021/06/26 10:44:51;;;;;;;21.00;4.95;;;972.80;921.60;;;;;;4955197;29;20090;-64
2021/06/26 10:47:19;;;;;;;7.40;4.15;;;972.90;896.00;;;;;;4955194;29;20110;-60
2021/06/26 10:49:45;;;;;;;11.48;4.03;;;972.90;921.60;;;;;;4955464;29;20047;-62
2021/06/26 10:52:19;;;;;;;13.52;4.70;;;972.90;896.00;;;;;;4955526;29;20370;-61
2021/06/26 10:54:58;;;;;;;14.98;4.72;;;972.90;896.00;;;;;;4955582;29;20035;-61
2021/06/26 10:57:25;;;;;;;18.08;3.83;;;972.90;844.80;;;;;;4955181;29;20035;-61
2021/06/26 10:59:59;;;;;;;6.63;3.50;;;972.80;844.80;;;;;;4952314;29;20381;-72
2021/06/26 11:02:38;;;;;;;7.90;3.08;;;972.80;819.20;;;;;;4943902;29;20036;-62
2021/06/26 11:05:04;;;;;;;10.02;3.92;;;972.80;844.80;;;;;;4941492;29;20027;-61
2021/06/26 11:07:34;;;;;;;5.90;3.38;;;972.80;844.80;;;;;;4942739;29;20052;-66
2021/06/26 11:10:07;;;;;;;6.55;3.78;;;948.00;793.60;;;;;;4938013;29;20066;-66
2021/06/26 11:12:45;;;;;;;6.70;4.18;;;948.00;793.60;;;;;;4935791;29;20031;-62
2021/06/26 11:15:12;;;;;;;8.13;3.75;;;948.00;793.60;;;;;;4935758;29;20113;-69
2021/06/26 11:17:43;;;;;;;7.85;3.42;;;948.00;793.60;;;;;;4939859;29;20517;-70
2021/06/26 11:20:15;;;;;;;35.30;4.82;;;972.80;793.60;;;;;;4946825;28;20035;-64
2021/06/26 11:22:51;;;;;;;12.93;3.25;;;972.80;793.60;;;;;;4985984;28;20054;-61
2021/06/26 11:25:17;;;;;;;8.88;3.30;;;972.80;793.60;;;;;;4985536;28;20098;-61
2021/06/26 11:27:43;;;;;;;5.97;3.45;;;972.80;768.00;;;;;;4984003;28;20031;-60
2021/06/26 11:30:09;;;;;;;6.88;3.30;;;972.80;793.60;;;;;;4985994;28;20034;-60
2021/06/26 11:32:36;;;;;;;15.57;3.90;;;972.80;793.60;;;;;;4985156;28;20081;-61
2021/06/26 11:35:09;;;;;;;10.75;3.50;;;972.80;793.60;;;;;;4984038;28;20042;-71
2021/06/26 11:37:36;;;;;;;17.48;4.63;;;972.90;793.60;;;;;;4988421;28;20018;-63
2021/06/26 11:40:15;;;;;;;20.02;4.40;;;973.00;819.20;;;;;;4985050;28;20105;-59
2021/06/26 11:42:52;;;;;;;411.63;40.65;;;972.90;793.60;;;;;;4984548;28;20085;-60
2021/06/26 11:45:20;;;;;;;61.70;9.60;;;973.00;793.60;;;;;;4984509;28;20367;-61
2021/06/26 11:47:46;;;;;;;63.05;6.88;;;972.90;793.60;;;;;;4985932;28;20428;-61
2021/06/26 11:50:19;;;;;;;13.05;3.75;;;972.90;768.00;;;;;;4983175;28;20019;-61
2021/06/26 11:52:45;;;;;;;10.50;3.13;;;948.00;742.40;;;;;;4983968;28;20023;-63
2021/06/26 11:55:12;;;;;;;124.30;12.95;;;948.00;742.40;;;;;;4983214;28;20030;-63
2021/06/26 11:57:38;;;;;;;24.95;5.95;;;948.00;768.00;;;;;;4984289;28;20026;-60
2021/06/26 12:00:06;;;;;;;13.18;4.05;;;972.80;793.60;;;;;;4983566;28;20408;-60
2021/06/26 12:02:34;;;;;;;10.70;3.92;;;972.80;793.60;;;;;;4982323;28;20081;-67
2021/06/26 12:05:01;;;;;;;8.00;3.47;;;972.80;793.60;;;;;;4984119;28;20019;-61
2021/06/26 12:07:37;;;;;;;5.88;3.40;;;972.80;793.60;;;;;;4982723;28;20031;-61
2021/06/26 12:10:05;;;;;;;6.55;3.50;;;972.90;768.00;;;;;;4983250;28;20034;-62
2021/06/26 12:12:38;;;;;;;6.15;3.28;;;972.90;768.00;;;;;;4982873;28;20392;-60
2021/06/26 12:15:08;;;;;;;12.77;3.88;;;972.90;768.00;;;;;;4983597;28;20417;-67